ROA9183 SCEL-SCNT
Flight info
| Callsign | ROA9183 |
|---|---|
| Flight time | 2h 49m |
| Altitude | 35000 |
| Route | LINER6C LINER UQ805 IRUDI/N0443F370 UQ805 TIGNO UQ803 BODOM BODOM3A |
| Aircraft | A320/M-SDE3FGHIRWY/LB1 |
Departure
| Time | 2026-04-20 19:18 |
|---|---|
| Airport | Comodoro Arturo Merino Benítez International Airport (SCEL) |
Arrival
| Time | 2026-04-20 22:07 |
|---|---|
| Airport | Lieutenant Julio Gallardo Airport (SCNT) |
| Time | Latitude | Longitude | Altitude | Speed | Heading |
|---|---|---|---|---|---|
| 2026-04-20 18:45 | -33.39612 | -70.79804 | 1565 ft | 0 kts | 176° |
| 2026-04-20 19:02 | -33.39604 | -70.79805 | 1565 ft | 2 kts | 176° |
| 2026-04-20 19:03 | -33.39587 | -70.79806 | 1565 ft | 2 kts | 176° |
| 2026-04-20 19:03 | -33.39570 | -70.79808 | 1565 ft | 2 kts | 176° |
| 2026-04-20 19:03 | -33.39552 | -70.79808 | 1565 ft | 3 kts | 202° |
| 2026-04-20 19:03 | -33.39537 | -70.79797 | 1565 ft | 3 kts | 238° |
| 2026-04-20 19:04 | -33.39530 | -70.79777 | 1564 ft | 3 kts | 273° |
| 2026-04-20 19:04 | -33.39531 | -70.79774 | 1564 ft | 0 kts | 273° |
| 2026-04-20 19:06 | -33.39530 | -70.79790 | 1565 ft | 3 kts | 273° |
| 2026-04-20 19:07 | -33.39528 | -70.79820 | 1565 ft | 5 kts | 274° |
| 2026-04-20 19:07 | -33.39529 | -70.79872 | 1565 ft | 7 kts | 268° |
| 2026-04-20 19:07 | -33.39525 | -70.79933 | 1565 ft | 7 kts | 303° |
| 2026-04-20 19:07 | -33.39471 | -70.79944 | 1565 ft | 10 kts | 358° |
| 2026-04-20 19:08 | -33.39381 | -70.79949 | 1565 ft | 15 kts | 356° |
| 2026-04-20 19:08 | -33.39155 | -70.79964 | 1565 ft | 17 kts | 357° |
| 2026-04-20 19:08 | -33.39036 | -70.79970 | 1565 ft | 18 kts | 358° |
| 2026-04-20 19:09 | -33.38910 | -70.79975 | 1565 ft | 18 kts | 357° |
| 2026-04-20 19:09 | -33.38797 | -70.79982 | 1565 ft | 16 kts | 357° |
| 2026-04-20 19:09 | -33.38681 | -70.79987 | 1565 ft | 17 kts | 358° |
| 2026-04-20 19:09 | -33.38575 | -70.79992 | 1565 ft | 7 kts | 357° |
| 2026-04-20 19:10 | -33.38523 | -70.79995 | 1565 ft | 10 kts | 357° |
| 2026-04-20 19:10 | -33.38419 | -70.79998 | 1565 ft | 20 kts | 1° |
| 2026-04-20 19:10 | -33.38320 | -70.80006 | 1565 ft | 11 kts | 354° |
| 2026-04-20 19:10 | -33.38249 | -70.80011 | 1565 ft | 5 kts | 357° |
| 2026-04-20 19:11 | -33.38178 | -70.80015 | 1565 ft | 12 kts | 356° |
| 2026-04-20 19:11 | -33.38105 | -70.80022 | 1565 ft | 7 kts | 341° |
| 2026-04-20 19:11 | -33.38096 | -70.80071 | 1565 ft | 5 kts | 268° |
| 2026-04-20 19:11 | -33.38096 | -70.80103 | 1566 ft | 2 kts | 276° |
| 2026-04-20 19:12 | -33.38088 | -70.80118 | 1566 ft | 3 kts | 311° |
| 2026-04-20 19:12 | -33.38052 | -70.80125 | 1566 ft | 8 kts | 359° |
| 2026-04-20 19:12 | -33.37985 | -70.80128 | 1566 ft | 12 kts | 358° |
| 2026-04-20 19:12 | -33.37892 | -70.80133 | 1566 ft | 13 kts | 358° |
| 2026-04-20 19:13 | -33.37805 | -70.80138 | 1566 ft | 11 kts | 357° |
| 2026-04-20 19:13 | -33.37733 | -70.80142 | 1566 ft | 9 kts | 359° |
| 2026-04-20 19:13 | -33.37667 | -70.80145 | 1566 ft | 11 kts | 357° |
| 2026-04-20 19:13 | -33.37585 | -70.80149 | 1566 ft | 12 kts | 358° |
| 2026-04-20 19:14 | -33.37489 | -70.80152 | 1566 ft | 17 kts | 357° |
| 2026-04-20 19:14 | -33.37377 | -70.80159 | 1567 ft | 15 kts | 357° |
| 2026-04-20 19:14 | -33.37279 | -70.80165 | 1567 ft | 13 kts | 356° |
| 2026-04-20 19:14 | -33.37195 | -70.80169 | 1567 ft | 11 kts | 358° |
| 2026-04-20 19:15 | -33.37126 | -70.80193 | 1567 ft | 9 kts | 314° |
| 2026-04-20 19:15 | -33.37110 | -70.80231 | 1568 ft | 6 kts | 292° |
| 2026-04-20 19:15 | -33.37103 | -70.80260 | 1570 ft | 2 kts | 283° |
| 2026-04-20 19:15 | -33.37103 | -70.80302 | 1572 ft | 7 kts | 260° |
| 2026-04-20 19:16 | -33.37131 | -70.80353 | 1574 ft | 10 kts | 224° |
| 2026-04-20 19:16 | -33.37204 | -70.80374 | 1573 ft | 12 kts | 177° |
| 2026-04-20 19:16 | -33.37211 | -70.80373 | 1573 ft | 0 kts | 176° |
| 2026-04-20 19:17 | -33.37232 | -70.80372 | 1573 ft | 13 kts | 177° |
| 2026-04-20 19:17 | -33.37477 | -70.80359 | 1574 ft | 67 kts | 177° |
| 2026-04-20 19:17 | -33.38195 | -70.80320 | 1572 ft | 127 kts | 177° |
| 2026-04-20 19:18 | -33.39222 | -70.80259 | 1623 ft | 166 kts | 174° |
| 2026-04-20 19:18 | -33.40374 | -70.80185 | 2221 ft | 170 kts | 176° |
| 2026-04-20 19:18 | -33.41623 | -70.80124 | 2547 ft | 190 kts | 177° |
| 2026-04-20 19:18 | -33.43073 | -70.80050 | 2847 ft | 212 kts | 178° |
| 2026-04-20 19:19 | -33.44570 | -70.79973 | 3215 ft | 236 kts | 178° |
| 2026-04-20 19:19 | -33.46285 | -70.79882 | 3721 ft | 255 kts | 178° |
| 2026-04-20 19:19 | -33.48114 | -70.79783 | 4456 ft | 265 kts | 178° |
| 2026-04-20 19:19 | -33.49957 | -70.79685 | 5231 ft | 273 kts | 178° |
| 2026-04-20 19:20 | -33.51882 | -70.79585 | 5984 ft | 281 kts | 178° |
| 2026-04-20 19:20 | -33.53864 | -70.79469 | 6713 ft | 289 kts | 177° |
| 2026-04-20 19:20 | -33.55924 | -70.79278 | 7411 ft | 297 kts | 176° |
| 2026-04-20 19:20 | -33.58000 | -70.79044 | 8149 ft | 302 kts | 176° |
| 2026-04-20 19:21 | -33.60139 | -70.78792 | 8881 ft | 308 kts | 176° |
| 2026-04-20 19:21 | -33.62268 | -70.78544 | 9608 ft | 315 kts | 176° |
| 2026-04-20 19:21 | -33.64643 | -70.78272 | 10296 ft | 325 kts | 177° |
| 2026-04-20 19:21 | -33.66989 | -70.78014 | 10521 ft | 349 kts | 177° |
| 2026-04-20 19:22 | -33.69360 | -70.77760 | 10817 ft | 366 kts | 177° |
| 2026-04-20 19:22 | -33.71914 | -70.77486 | 11393 ft | 372 kts | 178° |
| 2026-04-20 19:22 | -33.74510 | -70.77205 | 12077 ft | 376 kts | 178° |
| 2026-04-20 19:22 | -33.77122 | -70.76920 | 12759 ft | 379 kts | 178° |
| 2026-04-20 19:23 | -33.79766 | -70.76628 | 13443 ft | 383 kts | 178° |
| 2026-04-20 19:23 | -33.82436 | -70.76334 | 14114 ft | 386 kts | 179° |
| 2026-04-20 19:23 | -33.85117 | -70.76038 | 14710 ft | 389 kts | 179° |
| 2026-04-20 19:23 | -33.87822 | -70.75740 | 15326 ft | 392 kts | 180° |
| 2026-04-20 19:24 | -33.90544 | -70.75441 | 15942 ft | 394 kts | 180° |
| 2026-04-20 19:24 | -33.93303 | -70.75378 | 16551 ft | 391 kts | 190° |
| 2026-04-20 19:24 | -33.95973 | -70.75779 | 17059 ft | 391 kts | 194° |
| 2026-04-20 19:24 | -33.98672 | -70.76239 | 17687 ft | 392 kts | 195° |
| 2026-04-20 19:25 | -34.01371 | -70.76699 | 18278 ft | 394 kts | 195° |
| 2026-04-20 19:25 | -34.04109 | -70.77166 | 18835 ft | 396 kts | 195° |
| 2026-04-20 19:25 | -34.06839 | -70.77631 | 19346 ft | 398 kts | 195° |
| 2026-04-20 19:25 | -34.09592 | -70.78096 | 19859 ft | 400 kts | 195° |
| 2026-04-20 19:26 | -34.12356 | -70.78564 | 20361 ft | 402 kts | 196° |
| 2026-04-20 19:26 | -34.15132 | -70.79033 | 20853 ft | 404 kts | 196° |
| 2026-04-20 19:26 | -34.17926 | -70.79506 | 21347 ft | 407 kts | 196° |
| 2026-04-20 19:26 | -34.20781 | -70.79989 | 21846 ft | 409 kts | 196° |
| 2026-04-20 19:27 | -34.23601 | -70.80465 | 22316 ft | 411 kts | 196° |
| 2026-04-20 19:27 | -34.26446 | -70.80945 | 22779 ft | 414 kts | 197° |
| 2026-04-20 19:27 | -34.29304 | -70.81428 | 23255 ft | 416 kts | 197° |
| 2026-04-20 19:27 | -34.32177 | -70.81913 | 23719 ft | 418 kts | 197° |
| 2026-04-20 19:28 | -34.35060 | -70.82404 | 24103 ft | 420 kts | 197° |
| 2026-04-20 19:28 | -34.37958 | -70.82900 | 24473 ft | 422 kts | 197° |
| 2026-04-20 19:28 | -34.40879 | -70.83399 | 24841 ft | 424 kts | 197° |
| 2026-04-20 19:28 | -34.43820 | -70.83900 | 25197 ft | 427 kts | 197° |
| 2026-04-20 19:29 | -34.46769 | -70.84402 | 25512 ft | 429 kts | 197° |
| 2026-04-20 19:29 | -34.49738 | -70.84906 | 25872 ft | 431 kts | 197° |
| 2026-04-20 19:29 | -34.52717 | -70.85410 | 26250 ft | 434 kts | 197° |
| 2026-04-20 19:29 | -34.55715 | -70.85920 | 26609 ft | 436 kts | 197° |
| 2026-04-20 19:30 | -34.58765 | -70.86440 | 26951 ft | 438 kts | 197° |
| 2026-04-20 19:30 | -34.61793 | -70.86959 | 27298 ft | 441 kts | 198° |
| 2026-04-20 19:30 | -34.64830 | -70.87483 | 27629 ft | 442 kts | 198° |
| 2026-04-20 19:30 | -34.67888 | -70.88008 | 27964 ft | 445 kts | 197° |
| 2026-04-20 19:31 | -34.70967 | -70.88532 | 28278 ft | 447 kts | 197° |
| 2026-04-20 19:31 | -34.74055 | -70.89056 | 28567 ft | 449 kts | 197° |
| 2026-04-20 19:31 | -34.77157 | -70.89587 | 28909 ft | 451 kts | 197° |
| 2026-04-20 19:31 | -34.80272 | -70.90121 | 29251 ft | 453 kts | 197° |
| 2026-04-20 19:32 | -34.83401 | -70.90658 | 29567 ft | 455 kts | 197° |
| 2026-04-20 19:32 | -34.86543 | -70.91198 | 29871 ft | 457 kts | 197° |
| 2026-04-20 19:32 | -34.89700 | -70.91740 | 30181 ft | 459 kts | 197° |
| 2026-04-20 19:32 | -34.92869 | -70.92283 | 30449 ft | 461 kts | 197° |
| 2026-04-20 19:33 | -34.96050 | -70.92828 | 30629 ft | 462 kts | 197° |
| 2026-04-20 19:33 | -34.99238 | -70.93375 | 30845 ft | 464 kts | 197° |
| 2026-04-20 19:33 | -35.02441 | -70.93927 | 31114 ft | 464 kts | 196° |
| 2026-04-20 19:33 | -35.05635 | -70.94478 | 31442 ft | 463 kts | 196° |
| 2026-04-20 19:34 | -35.08785 | -70.95019 | 31793 ft | 462 kts | 196° |
| 2026-04-20 19:34 | -35.12013 | -70.95573 | 32144 ft | 462 kts | 196° |
| 2026-04-20 19:34 | -35.15189 | -70.96118 | 32480 ft | 461 kts | 196° |
| 2026-04-20 19:34 | -35.18367 | -70.96666 | 32822 ft | 460 kts | 196° |
| 2026-04-20 19:35 | -35.21539 | -70.97216 | 33132 ft | 459 kts | 196° |
| 2026-04-20 19:35 | -35.24697 | -70.97763 | 33468 ft | 458 kts | 196° |
| 2026-04-20 19:35 | -35.27858 | -70.98313 | 33762 ft | 458 kts | 195° |
| 2026-04-20 19:35 | -35.30966 | -70.98853 | 34077 ft | 457 kts | 195° |
| 2026-04-20 19:36 | -35.34107 | -70.99397 | 34371 ft | 455 kts | 195° |
| 2026-04-20 19:36 | -35.37243 | -70.99943 | 34627 ft | 454 kts | 195° |
| 2026-04-20 19:36 | -35.39359 | -71.00310 | 34817 ft | 454 kts | 195° |
| 2026-04-20 19:36 | -35.42487 | -71.00856 | 35082 ft | 453 kts | 195° |
| 2026-04-20 19:37 | -35.45608 | -71.01402 | 35197 ft | 452 kts | 195° |
| 2026-04-20 19:37 | -35.51810 | -71.02485 | 35223 ft | 448 kts | 195° |
| 2026-04-20 19:38 | -35.57988 | -71.03569 | 35217 ft | 448 kts | 194° |
| 2026-04-20 19:38 | -35.64156 | -71.04652 | 35219 ft | 447 kts | 194° |
| 2026-04-20 19:39 | -35.70316 | -71.05730 | 35223 ft | 447 kts | 194° |
| 2026-04-20 19:39 | -35.76448 | -71.06804 | 35226 ft | 448 kts | 194° |
| 2026-04-20 19:40 | -35.82610 | -71.07891 | 35228 ft | 448 kts | 194° |
| 2026-04-20 19:40 | -35.88818 | -71.08978 | 35221 ft | 447 kts | 193° |
| 2026-04-20 19:41 | -35.94942 | -71.10059 | 35224 ft | 447 kts | 193° |
| 2026-04-20 19:41 | -36.01147 | -71.11157 | 35220 ft | 447 kts | 193° |
| 2026-04-20 19:42 | -36.07313 | -71.12253 | 35224 ft | 448 kts | 193° |
| 2026-04-20 19:42 | -36.13479 | -71.13348 | 35217 ft | 447 kts | 193° |
| 2026-04-20 19:43 | -36.18608 | -71.14254 | 35219 ft | 447 kts | 192° |
| 2026-04-20 19:43 | -36.25806 | -71.15537 | 35220 ft | 447 kts | 192° |
| 2026-04-20 19:44 | -36.31972 | -71.16632 | 35214 ft | 447 kts | 192° |
| 2026-04-20 19:44 | -36.38162 | -71.17725 | 35212 ft | 446 kts | 192° |
| 2026-04-20 19:45 | -36.44313 | -71.18826 | 35207 ft | 446 kts | 192° |
| 2026-04-20 19:45 | -36.50457 | -71.19937 | 35209 ft | 446 kts | 192° |
| 2026-04-20 19:46 | -36.56597 | -71.21047 | 35209 ft | 446 kts | 191° |
| 2026-04-20 19:46 | -36.62783 | -71.22156 | 35202 ft | 446 kts | 191° |
| 2026-04-20 19:47 | -36.68919 | -71.23259 | 35206 ft | 445 kts | 191° |
| 2026-04-20 19:47 | -36.75053 | -71.24368 | 35206 ft | 445 kts | 191° |
| 2026-04-20 19:48 | -36.81192 | -71.25471 | 35203 ft | 445 kts | 190° |
| 2026-04-20 19:48 | -36.87317 | -71.26573 | 35201 ft | 445 kts | 190° |
| 2026-04-20 19:49 | -36.93491 | -71.27688 | 35199 ft | 445 kts | 190° |
| 2026-04-20 19:49 | -36.99658 | -71.28807 | 35205 ft | 444 kts | 190° |
| 2026-04-20 19:50 | -37.05732 | -71.29918 | 35215 ft | 444 kts | 189° |
| 2026-04-20 19:50 | -37.11845 | -71.31026 | 35214 ft | 443 kts | 189° |
| 2026-04-20 19:51 | -37.17941 | -71.32129 | 35216 ft | 442 kts | 189° |
| 2026-04-20 19:51 | -37.24063 | -71.33248 | 35209 ft | 441 kts | 189° |
| 2026-04-20 19:52 | -37.30127 | -71.34364 | 35206 ft | 440 kts | 189° |
| 2026-04-20 19:52 | -37.36141 | -71.35465 | 35208 ft | 439 kts | 188° |
| 2026-04-20 19:53 | -37.42260 | -71.36580 | 35206 ft | 438 kts | 188° |
| 2026-04-20 19:53 | -37.48295 | -71.37692 | 35203 ft | 437 kts | 188° |
| 2026-04-20 19:54 | -37.54267 | -71.38794 | 35213 ft | 436 kts | 188° |
| 2026-04-20 19:54 | -37.60300 | -71.39904 | 35211 ft | 434 kts | 188° |
| 2026-04-20 19:55 | -37.66274 | -71.41009 | 35211 ft | 433 kts | 187° |
| 2026-04-20 19:55 | -37.72268 | -71.42124 | 35194 ft | 432 kts | 187° |
| 2026-04-20 19:56 | -37.77201 | -71.43040 | 35201 ft | 430 kts | 187° |
| 2026-04-20 19:56 | -37.84080 | -71.44313 | 35190 ft | 429 kts | 187° |
| 2026-04-20 19:57 | -37.89976 | -71.45407 | 35185 ft | 427 kts | 187° |
| 2026-04-20 19:57 | -37.95848 | -71.46496 | 35179 ft | 426 kts | 187° |
| 2026-04-20 19:58 | -38.01706 | -71.47592 | 35178 ft | 425 kts | 187° |
| 2026-04-20 19:58 | -38.07545 | -71.48686 | 35176 ft | 424 kts | 186° |
| 2026-04-20 19:59 | -38.13370 | -71.49775 | 35171 ft | 422 kts | 186° |
| 2026-04-20 19:59 | -38.19181 | -71.50860 | 35173 ft | 421 kts | 186° |
| 2026-04-20 20:00 | -38.24975 | -71.51949 | 35168 ft | 420 kts | 186° |
| 2026-04-20 20:00 | -38.30749 | -71.53039 | 35167 ft | 419 kts | 186° |
| 2026-04-20 20:01 | -38.36510 | -71.54125 | 35171 ft | 417 kts | 186° |
| 2026-04-20 20:01 | -38.42248 | -71.55202 | 35171 ft | 416 kts | 185° |
| 2026-04-20 20:02 | -38.47965 | -71.56281 | 35172 ft | 414 kts | 185° |
| 2026-04-20 20:02 | -38.53661 | -71.57358 | 35169 ft | 413 kts | 185° |
| 2026-04-20 20:03 | -38.59337 | -71.58436 | 35172 ft | 412 kts | 185° |
| 2026-04-20 20:03 | -38.64994 | -71.59509 | 35163 ft | 410 kts | 185° |
| 2026-04-20 20:04 | -38.70638 | -71.60580 | 35164 ft | 408 kts | 184° |
| 2026-04-20 20:04 | -38.75306 | -71.61466 | 35171 ft | 408 kts | 184° |
| 2026-04-20 20:05 | -38.80925 | -71.62537 | 35161 ft | 408 kts | 184° |
| 2026-04-20 20:05 | -38.86536 | -71.63605 | 35163 ft | 407 kts | 184° |
| 2026-04-20 20:06 | -38.92111 | -71.64666 | 35167 ft | 407 kts | 184° |
| 2026-04-20 20:06 | -38.97708 | -71.65738 | 35160 ft | 406 kts | 184° |
| 2026-04-20 20:07 | -39.03298 | -71.66817 | 35160 ft | 406 kts | 184° |
| 2026-04-20 20:07 | -39.08883 | -71.67899 | 35155 ft | 405 kts | 184° |
| 2026-04-20 20:08 | -39.14498 | -71.68978 | 35150 ft | 406 kts | 184° |
| 2026-04-20 20:08 | -39.20137 | -71.70066 | 35155 ft | 406 kts | 184° |
| 2026-04-20 20:09 | -39.25729 | -71.71144 | 35147 ft | 406 kts | 184° |
| 2026-04-20 20:09 | -39.31359 | -71.72234 | 35151 ft | 407 kts | 184° |
| 2026-04-20 20:10 | -39.36964 | -71.73318 | 35147 ft | 407 kts | 184° |
| 2026-04-20 20:10 | -39.42573 | -71.74412 | 35148 ft | 408 kts | 184° |
| 2026-04-20 20:11 | -39.48190 | -71.75515 | 35149 ft | 408 kts | 184° |
| 2026-04-20 20:11 | -39.53924 | -71.76627 | 35149 ft | 408 kts | 184° |
| 2026-04-20 20:12 | -39.59552 | -71.77729 | 35149 ft | 409 kts | 185° |
| 2026-04-20 20:12 | -39.65186 | -71.78832 | 35151 ft | 410 kts | 185° |
| 2026-04-20 20:13 | -39.73652 | -71.80478 | 35151 ft | 410 kts | 184° |
| 2026-04-20 20:13 | -39.79304 | -71.81575 | 35153 ft | 411 kts | 185° |
| 2026-04-20 20:14 | -39.84962 | -71.82691 | 35161 ft | 412 kts | 185° |
| 2026-04-20 20:14 | -39.90662 | -71.83820 | 35166 ft | 412 kts | 185° |
| 2026-04-20 20:15 | -39.96342 | -71.84937 | 35164 ft | 412 kts | 185° |
| 2026-04-20 20:15 | -40.02056 | -71.86061 | 35171 ft | 413 kts | 185° |
| 2026-04-20 20:16 | -40.07745 | -71.87187 | 35174 ft | 413 kts | 185° |
| 2026-04-20 20:16 | -40.13403 | -71.88310 | 35173 ft | 414 kts | 185° |
| 2026-04-20 20:17 | -40.19135 | -71.89446 | 35187 ft | 414 kts | 185° |
| 2026-04-20 20:17 | -40.24831 | -71.90582 | 35194 ft | 414 kts | 185° |
| 2026-04-20 20:18 | -40.30500 | -71.91711 | 35200 ft | 415 kts | 186° |
| 2026-04-20 20:18 | -40.36244 | -71.92864 | 35194 ft | 415 kts | 186° |
| 2026-04-20 20:19 | -40.41915 | -71.94008 | 35196 ft | 415 kts | 186° |
| 2026-04-20 20:19 | -40.47628 | -71.95144 | 35202 ft | 415 kts | 186° |
| 2026-04-20 20:20 | -40.53333 | -71.96281 | 35199 ft | 415 kts | 186° |
| 2026-04-20 20:20 | -40.59091 | -71.97440 | 35205 ft | 415 kts | 186° |
| 2026-04-20 20:21 | -40.64799 | -71.98593 | 35210 ft | 415 kts | 186° |
| 2026-04-20 20:21 | -40.70510 | -71.99742 | 35207 ft | 415 kts | 186° |
| 2026-04-20 20:22 | -40.76213 | -72.00889 | 35209 ft | 415 kts | 186° |
| 2026-04-20 20:22 | -40.81957 | -72.02053 | 35206 ft | 415 kts | 187° |
| 2026-04-20 20:23 | -40.87654 | -72.03207 | 35208 ft | 415 kts | 187° |
| 2026-04-20 20:23 | -40.93344 | -72.04357 | 35205 ft | 415 kts | 187° |
| 2026-04-20 20:24 | -40.99107 | -72.05528 | 35209 ft | 415 kts | 187° |
| 2026-04-20 20:24 | -41.03861 | -72.06496 | 35205 ft | 415 kts | 187° |
| 2026-04-20 20:25 | -41.09651 | -72.07681 | 35500 ft | 419 kts | 187° |
| 2026-04-20 20:25 | -41.12532 | -72.08269 | 35732 ft | 419 kts | 187° |
| 2026-04-20 20:25 | -41.15415 | -72.08854 | 35950 ft | 419 kts | 187° |
| 2026-04-20 20:26 | -41.18304 | -72.09441 | 36170 ft | 419 kts | 187° |
| 2026-04-20 20:26 | -41.21190 | -72.10030 | 36360 ft | 419 kts | 187° |
| 2026-04-20 20:26 | -41.24070 | -72.10622 | 36552 ft | 419 kts | 187° |
| 2026-04-20 20:26 | -41.26961 | -72.11219 | 36733 ft | 419 kts | 187° |
| 2026-04-20 20:27 | -41.29851 | -72.11800 | 36932 ft | 419 kts | 187° |
| 2026-04-20 20:27 | -41.32739 | -72.12300 | 37120 ft | 419 kts | 185° |
| 2026-04-20 20:27 | -41.38547 | -72.13157 | 37215 ft | 420 kts | 185° |
| 2026-04-20 20:28 | -41.44367 | -72.13993 | 37216 ft | 420 kts | 185° |
| 2026-04-20 20:28 | -41.50178 | -72.14891 | 37216 ft | 420 kts | 186° |
| 2026-04-20 20:29 | -41.55980 | -72.15810 | 37214 ft | 420 kts | 186° |
| 2026-04-20 20:29 | -41.61799 | -72.16721 | 37218 ft | 420 kts | 186° |
| 2026-04-20 20:30 | -41.67605 | -72.17627 | 37217 ft | 420 kts | 186° |
| 2026-04-20 20:30 | -41.73412 | -72.18540 | 37220 ft | 421 kts | 186° |
| 2026-04-20 20:31 | -41.79234 | -72.19464 | 37221 ft | 421 kts | 186° |
| 2026-04-20 20:31 | -41.85101 | -72.20384 | 37223 ft | 421 kts | 186° |
| 2026-04-20 20:32 | -41.90931 | -72.21297 | 37231 ft | 422 kts | 186° |
| 2026-04-20 20:32 | -41.96722 | -72.22212 | 37233 ft | 422 kts | 186° |
| 2026-04-20 20:33 | -42.02558 | -72.23142 | 37236 ft | 422 kts | 186° |
| 2026-04-20 20:33 | -42.08429 | -72.24075 | 37234 ft | 422 kts | 186° |
| 2026-04-20 20:34 | -42.14269 | -72.25000 | 37236 ft | 422 kts | 186° |
| 2026-04-20 20:34 | -42.20108 | -72.25922 | 37230 ft | 423 kts | 187° |
| 2026-04-20 20:35 | -42.25963 | -72.26854 | 37229 ft | 424 kts | 187° |
| 2026-04-20 20:35 | -42.31829 | -72.27790 | 37226 ft | 424 kts | 187° |
| 2026-04-20 20:36 | -42.37695 | -72.28730 | 37225 ft | 425 kts | 187° |
| 2026-04-20 20:36 | -42.43580 | -72.29675 | 37221 ft | 426 kts | 187° |
| 2026-04-20 20:37 | -42.49471 | -72.30622 | 37218 ft | 426 kts | 187° |
| 2026-04-20 20:37 | -42.55370 | -72.31573 | 37222 ft | 427 kts | 187° |
| 2026-04-20 20:38 | -42.61284 | -72.32517 | 37220 ft | 428 kts | 187° |
| 2026-04-20 20:38 | -42.67250 | -72.33475 | 37219 ft | 429 kts | 187° |
| 2026-04-20 20:39 | -42.73221 | -72.34441 | 37219 ft | 429 kts | 187° |
| 2026-04-20 20:39 | -42.78421 | -72.35211 | 37215 ft | 430 kts | 187° |
| 2026-04-20 20:40 | -42.84047 | -72.37213 | 37057 ft | 420 kts | 216° |
| 2026-04-20 20:40 | -42.86540 | -72.39401 | 37163 ft | 422 kts | 207° |
| 2026-04-20 20:40 | -42.89332 | -72.40614 | 37231 ft | 426 kts | 186° |
| 2026-04-20 20:41 | -42.91336 | -72.40621 | 37230 ft | 430 kts | 175° |
| 2026-04-20 20:41 | -42.95300 | -72.39981 | 37229 ft | 434 kts | 174° |
| 2026-04-20 20:41 | -43.01130 | -72.39102 | 37230 ft | 434 kts | 181° |
| 2026-04-20 20:42 | -43.07183 | -72.39631 | 37230 ft | 433 kts | 188° |
| 2026-04-20 20:42 | -43.12147 | -72.40583 | 37230 ft | 433 kts | 190° |
| 2026-04-20 20:43 | -43.18129 | -72.41784 | 37231 ft | 434 kts | 189° |
| 2026-04-20 20:43 | -43.25091 | -72.42992 | 37235 ft | 434 kts | 188° |
| 2026-04-20 20:44 | -43.30085 | -72.43782 | 37234 ft | 434 kts | 188° |
| 2026-04-20 20:44 | -43.36079 | -72.44741 | 37239 ft | 433 kts | 189° |
| 2026-04-20 20:45 | -43.42086 | -72.45731 | 37239 ft | 433 kts | 189° |
| 2026-04-20 20:45 | -43.48071 | -72.46731 | 37240 ft | 433 kts | 189° |
| 2026-04-20 20:46 | -43.54050 | -72.47736 | 37241 ft | 433 kts | 189° |
| 2026-04-20 20:46 | -43.60035 | -72.48739 | 37240 ft | 432 kts | 189° |
| 2026-04-20 20:47 | -43.66005 | -72.49739 | 37246 ft | 432 kts | 189° |
| 2026-04-20 20:47 | -43.71977 | -72.50739 | 37245 ft | 432 kts | 190° |
| 2026-04-20 20:48 | -43.77958 | -72.51737 | 37244 ft | 432 kts | 190° |
| 2026-04-20 20:48 | -43.83931 | -72.52735 | 37243 ft | 432 kts | 190° |
| 2026-04-20 20:49 | -43.89914 | -72.53741 | 37238 ft | 432 kts | 190° |
| 2026-04-20 20:49 | -43.95841 | -72.54744 | 37233 ft | 432 kts | 190° |
| 2026-04-20 20:50 | -44.01815 | -72.55753 | 37228 ft | 433 kts | 190° |
| 2026-04-20 20:50 | -44.07835 | -72.56782 | 37226 ft | 433 kts | 190° |
| 2026-04-20 20:51 | -44.13784 | -72.57786 | 37220 ft | 434 kts | 190° |
| 2026-04-20 20:51 | -44.19782 | -72.58790 | 37221 ft | 434 kts | 190° |
| 2026-04-20 20:52 | -44.25790 | -72.59809 | 37222 ft | 435 kts | 191° |
| 2026-04-20 20:52 | -44.31800 | -72.60843 | 37222 ft | 435 kts | 191° |
| 2026-04-20 20:53 | -44.37862 | -72.61886 | 37221 ft | 436 kts | 191° |
| 2026-04-20 20:53 | -44.43851 | -72.62908 | 37222 ft | 436 kts | 191° |
| 2026-04-20 20:54 | -44.49927 | -72.63950 | 37224 ft | 437 kts | 191° |
| 2026-04-20 20:54 | -44.55965 | -72.64991 | 37225 ft | 438 kts | 191° |
| 2026-04-20 20:55 | -44.62013 | -72.66034 | 37229 ft | 438 kts | 191° |
| 2026-04-20 20:55 | -44.68071 | -72.67084 | 37232 ft | 438 kts | 191° |
| 2026-04-20 20:56 | -44.74117 | -72.68125 | 37238 ft | 438 kts | 191° |
| 2026-04-20 20:56 | -44.80183 | -72.69175 | 37236 ft | 438 kts | 192° |
| 2026-04-20 20:57 | -44.86198 | -72.70226 | 37232 ft | 438 kts | 192° |
| 2026-04-20 20:57 | -44.92251 | -72.71278 | 37229 ft | 439 kts | 192° |
| 2026-04-20 20:58 | -44.98315 | -72.72339 | 37226 ft | 438 kts | 192° |
| 2026-04-20 20:58 | -45.04378 | -72.73406 | 37224 ft | 438 kts | 192° |
| 2026-04-20 20:59 | -45.10429 | -72.74465 | 37218 ft | 438 kts | 192° |
| 2026-04-20 20:59 | -45.16519 | -72.75525 | 37210 ft | 438 kts | 192° |
| 2026-04-20 21:00 | -45.22514 | -72.76576 | 37213 ft | 438 kts | 193° |
| 2026-04-20 21:00 | -45.28600 | -72.77659 | 37202 ft | 437 kts | 193° |
| 2026-04-20 21:01 | -45.34603 | -72.78723 | 37200 ft | 437 kts | 193° |
| 2026-04-20 21:01 | -45.40673 | -72.79789 | 37196 ft | 436 kts | 193° |
| 2026-04-20 21:02 | -45.46743 | -72.80862 | 37204 ft | 436 kts | 193° |
| 2026-04-20 21:02 | -45.52764 | -72.81944 | 37197 ft | 435 kts | 193° |
| 2026-04-20 21:03 | -45.58762 | -72.83021 | 37194 ft | 434 kts | 193° |
| 2026-04-20 21:03 | -45.64758 | -72.84091 | 37187 ft | 433 kts | 194° |
| 2026-04-20 21:04 | -45.70734 | -72.85158 | 37188 ft | 432 kts | 194° |
| 2026-04-20 21:04 | -45.76710 | -72.86227 | 37189 ft | 433 kts | 194° |
| 2026-04-20 21:05 | -45.82682 | -72.87298 | 37183 ft | 432 kts | 194° |
| 2026-04-20 21:05 | -45.88648 | -72.88376 | 37182 ft | 432 kts | 194° |
| 2026-04-20 21:06 | -45.94613 | -72.89453 | 37173 ft | 432 kts | 194° |
| 2026-04-20 21:06 | -46.00611 | -72.90534 | 37167 ft | 432 kts | 194° |
| 2026-04-20 21:07 | -46.06536 | -72.91610 | 37162 ft | 432 kts | 194° |
| 2026-04-20 21:07 | -46.12535 | -72.92697 | 37159 ft | 432 kts | 194° |
| 2026-04-20 21:08 | -46.18500 | -72.93790 | 37155 ft | 432 kts | 194° |
| 2026-04-20 21:08 | -46.24462 | -72.94882 | 37150 ft | 432 kts | 194° |
| 2026-04-20 21:09 | -46.30510 | -72.95985 | 37141 ft | 432 kts | 194° |
| 2026-04-20 21:09 | -46.35507 | -72.96901 | 37138 ft | 432 kts | 194° |
| 2026-04-20 21:10 | -46.41598 | -72.98016 | 37130 ft | 432 kts | 194° |
| 2026-04-20 21:10 | -46.47511 | -72.99108 | 37125 ft | 432 kts | 195° |
| 2026-04-20 21:11 | -46.53482 | -73.00221 | 37122 ft | 432 kts | 195° |
| 2026-04-20 21:11 | -46.59462 | -73.01331 | 37117 ft | 433 kts | 195° |
| 2026-04-20 21:12 | -46.65440 | -73.02433 | 37100 ft | 433 kts | 195° |
| 2026-04-20 21:12 | -46.71433 | -73.03536 | 37102 ft | 433 kts | 195° |
| 2026-04-20 21:13 | -46.77420 | -73.04652 | 37086 ft | 434 kts | 195° |
| 2026-04-20 21:13 | -46.83413 | -73.05775 | 37091 ft | 434 kts | 195° |
| 2026-04-20 21:14 | -46.89414 | -73.06898 | 37090 ft | 435 kts | 195° |
| 2026-04-20 21:14 | -46.95430 | -73.08020 | 37091 ft | 435 kts | 195° |
| 2026-04-20 21:15 | -47.01476 | -73.09159 | 37084 ft | 435 kts | 195° |
| 2026-04-20 21:15 | -47.07486 | -73.10299 | 37084 ft | 436 kts | 195° |
| 2026-04-20 21:16 | -47.13463 | -73.11444 | 37077 ft | 436 kts | 195° |
| 2026-04-20 21:16 | -47.19515 | -73.12603 | 37067 ft | 436 kts | 195° |
| 2026-04-20 21:17 | -47.25575 | -73.13752 | 37071 ft | 436 kts | 195° |
| 2026-04-20 21:17 | -47.31606 | -73.14890 | 37064 ft | 437 kts | 195° |
| 2026-04-20 21:18 | -47.37641 | -73.16035 | 37058 ft | 437 kts | 195° |
| 2026-04-20 21:18 | -47.43680 | -73.17192 | 37047 ft | 437 kts | 195° |
| 2026-04-20 21:19 | -47.49721 | -73.18355 | 37049 ft | 439 kts | 195° |
| 2026-04-20 21:20 | -47.58802 | -73.20118 | 37046 ft | 439 kts | 195° |
| 2026-04-20 21:20 | -47.64866 | -73.21283 | 37044 ft | 439 kts | 195° |
| 2026-04-20 21:21 | -47.70936 | -73.22449 | 37042 ft | 439 kts | 195° |
| 2026-04-20 21:21 | -47.76989 | -73.23619 | 37036 ft | 439 kts | 195° |
| 2026-04-20 21:22 | -47.83054 | -73.24798 | 37035 ft | 439 kts | 195° |
| 2026-04-20 21:22 | -47.89116 | -73.25987 | 37032 ft | 439 kts | 195° |
| 2026-04-20 21:23 | -47.95190 | -73.27181 | 37025 ft | 440 kts | 194° |
| 2026-04-20 21:23 | -48.01268 | -73.28367 | 37020 ft | 440 kts | 195° |
| 2026-04-20 21:24 | -48.07314 | -73.29553 | 37020 ft | 441 kts | 194° |
| 2026-04-20 21:24 | -48.13399 | -73.30745 | 37026 ft | 441 kts | 194° |
| 2026-04-20 21:25 | -48.19505 | -73.31952 | 37020 ft | 441 kts | 194° |
| 2026-04-20 21:25 | -48.25593 | -73.33165 | 37026 ft | 442 kts | 194° |
| 2026-04-20 21:26 | -48.31685 | -73.34364 | 37029 ft | 442 kts | 194° |
| 2026-04-20 21:26 | -48.37788 | -73.35565 | 37020 ft | 442 kts | 194° |
| 2026-04-20 21:27 | -48.43888 | -73.36783 | 37015 ft | 443 kts | 194° |
| 2026-04-20 21:27 | -48.49995 | -73.38005 | 37019 ft | 443 kts | 194° |
| 2026-04-20 21:28 | -48.56115 | -73.39219 | 37009 ft | 444 kts | 194° |
| 2026-04-20 21:28 | -48.62238 | -73.40449 | 37008 ft | 444 kts | 194° |
| 2026-04-20 21:29 | -48.68335 | -73.41696 | 37007 ft | 445 kts | 194° |
| 2026-04-20 21:29 | -48.74481 | -73.42926 | 37011 ft | 446 kts | 194° |
| 2026-04-20 21:30 | -48.80683 | -73.44170 | 37010 ft | 446 kts | 194° |
| 2026-04-20 21:30 | -48.86883 | -73.45414 | 37003 ft | 446 kts | 193° |
| 2026-04-20 21:31 | -48.93038 | -73.46670 | 37000 ft | 447 kts | 193° |
| 2026-04-20 21:31 | -48.99207 | -73.47930 | 37004 ft | 447 kts | 193° |
| 2026-04-20 21:32 | -49.05265 | -73.49177 | 36991 ft | 446 kts | 193° |
| 2026-04-20 21:32 | -49.11420 | -73.50438 | 36985 ft | 447 kts | 193° |
| 2026-04-20 21:33 | -49.17593 | -73.51695 | 36970 ft | 448 kts | 193° |
| 2026-04-20 21:33 | -49.23764 | -73.52954 | 36952 ft | 448 kts | 193° |
| 2026-04-20 21:34 | -49.29090 | -73.54053 | 36946 ft | 449 kts | 194° |
| 2026-04-20 21:34 | -49.35328 | -73.55348 | 36940 ft | 449 kts | 194° |
| 2026-04-20 21:35 | -49.41526 | -73.56632 | 36932 ft | 450 kts | 193° |
| 2026-04-20 21:35 | -49.47729 | -73.57903 | 36931 ft | 450 kts | 193° |
| 2026-04-20 21:36 | -49.53931 | -73.59194 | 36926 ft | 449 kts | 193° |
| 2026-04-20 21:36 | -49.60126 | -73.60499 | 36919 ft | 449 kts | 193° |
| 2026-04-20 21:37 | -49.66281 | -73.61780 | 36904 ft | 449 kts | 192° |
| 2026-04-20 21:37 | -49.72481 | -73.63068 | 36900 ft | 450 kts | 192° |
| 2026-04-20 21:38 | -49.78681 | -73.64380 | 36892 ft | 450 kts | 192° |
| 2026-04-20 21:38 | -49.84885 | -73.65689 | 36884 ft | 450 kts | 192° |
| 2026-04-20 21:39 | -49.91101 | -73.67005 | 36872 ft | 451 kts | 193° |
| 2026-04-20 21:39 | -49.97366 | -73.68337 | 36870 ft | 452 kts | 193° |
| 2026-04-20 21:40 | -50.03598 | -73.69645 | 36865 ft | 452 kts | 193° |
| 2026-04-20 21:40 | -50.09838 | -73.70964 | 36863 ft | 452 kts | 193° |
| 2026-04-20 21:41 | -50.16073 | -73.72306 | 36857 ft | 452 kts | 193° |
| 2026-04-20 21:41 | -50.22310 | -73.73653 | 36845 ft | 453 kts | 193° |
| 2026-04-20 21:42 | -50.28552 | -73.74992 | 36849 ft | 453 kts | 193° |
| 2026-04-20 21:42 | -50.34868 | -73.75471 | 36841 ft | 461 kts | 177° |
| 2026-04-20 21:42 | -50.38030 | -73.74453 | 36840 ft | 467 kts | 166° |
| 2026-04-20 21:43 | -50.41061 | -73.72553 | 36830 ft | 471 kts | 155° |
| 2026-04-20 21:43 | -50.46737 | -73.67328 | 36818 ft | 474 kts | 152° |
| 2026-04-20 21:43 | -50.49576 | -73.64678 | 36527 ft | 476 kts | 152° |
| 2026-04-20 21:44 | -50.52439 | -73.62002 | 35130 ft | 485 kts | 152° |
| 2026-04-20 21:44 | -50.55367 | -73.59268 | 33888 ft | 490 kts | 153° |
| 2026-04-20 21:44 | -50.58297 | -73.56527 | 32764 ft | 488 kts | 153° |
| 2026-04-20 21:44 | -50.61177 | -73.53814 | 32145 ft | 474 kts | 153° |
| 2026-04-20 21:45 | -50.63979 | -73.51159 | 31563 ft | 468 kts | 153° |
| 2026-04-20 21:45 | -50.66765 | -73.48523 | 30972 ft | 466 kts | 154° |
| 2026-04-20 21:45 | -50.69503 | -73.45935 | 30397 ft | 464 kts | 154° |
| 2026-04-20 21:45 | -50.72268 | -73.43323 | 29812 ft | 463 kts | 154° |
| 2026-04-20 21:46 | -50.75026 | -73.40717 | 29185 ft | 460 kts | 154° |
| 2026-04-20 21:46 | -50.77764 | -73.38122 | 28636 ft | 456 kts | 154° |
| 2026-04-20 21:46 | -50.80473 | -73.35548 | 28078 ft | 452 kts | 154° |
| 2026-04-20 21:46 | -50.83152 | -73.32993 | 27548 ft | 448 kts | 155° |
| 2026-04-20 21:47 | -50.85808 | -73.30459 | 27013 ft | 444 kts | 155° |
| 2026-04-20 21:47 | -50.88440 | -73.27950 | 26514 ft | 440 kts | 155° |
| 2026-04-20 21:47 | -50.91047 | -73.25456 | 26010 ft | 436 kts | 155° |
| 2026-04-20 21:47 | -50.93634 | -73.22977 | 25499 ft | 433 kts | 155° |
| 2026-04-20 21:48 | -50.96206 | -73.20513 | 24996 ft | 430 kts | 155° |
| 2026-04-20 21:48 | -50.98767 | -73.18061 | 24477 ft | 429 kts | 155° |
| 2026-04-20 21:48 | -51.01319 | -73.15616 | 23956 ft | 428 kts | 155° |
| 2026-04-20 21:48 | -51.03869 | -73.13169 | 23423 ft | 428 kts | 155° |
| 2026-04-20 21:49 | -51.06420 | -73.10715 | 22824 ft | 427 kts | 155° |
| 2026-04-20 21:49 | -51.08949 | -73.08278 | 22295 ft | 424 kts | 155° |
| 2026-04-20 21:49 | -51.11468 | -73.05850 | 21745 ft | 422 kts | 155° |
| 2026-04-20 21:49 | -51.13975 | -73.03431 | 21218 ft | 421 kts | 155° |
| 2026-04-20 21:50 | -51.16470 | -73.01019 | 20668 ft | 419 kts | 154° |
| 2026-04-20 21:50 | -51.18963 | -72.98608 | 20150 ft | 418 kts | 154° |
| 2026-04-20 21:50 | -51.21442 | -72.96203 | 19652 ft | 417 kts | 154° |
| 2026-04-20 21:50 | -51.23907 | -72.93792 | 19216 ft | 414 kts | 154° |
| 2026-04-20 21:51 | -51.26355 | -72.91380 | 18761 ft | 412 kts | 153° |
| 2026-04-20 21:51 | -51.28772 | -72.88981 | 18307 ft | 403 kts | 153° |
| 2026-04-20 21:51 | -51.31105 | -72.86648 | 17871 ft | 390 kts | 153° |
| 2026-04-20 21:51 | -51.33403 | -72.84352 | 17431 ft | 388 kts | 153° |
| 2026-04-20 21:52 | -51.35690 | -72.82080 | 17012 ft | 386 kts | 153° |
| 2026-04-20 21:52 | -51.37968 | -72.79824 | 16602 ft | 383 kts | 153° |
| 2026-04-20 21:52 | -51.40225 | -72.77585 | 16191 ft | 381 kts | 153° |
| 2026-04-20 21:52 | -51.42473 | -72.75351 | 15789 ft | 379 kts | 154° |
| 2026-04-20 21:53 | -51.44776 | -72.73532 | 15395 ft | 371 kts | 166° |
| 2026-04-20 21:53 | -51.47261 | -72.72388 | 15010 ft | 361 kts | 177° |
| 2026-04-20 21:53 | -51.49729 | -72.71648 | 14627 ft | 360 kts | 177° |
| 2026-04-20 21:53 | -51.52186 | -72.70904 | 14250 ft | 359 kts | 177° |
| 2026-04-20 21:54 | -51.54635 | -72.70155 | 13872 ft | 358 kts | 177° |
| 2026-04-20 21:54 | -51.57051 | -72.69413 | 13469 ft | 358 kts | 176° |
| 2026-04-20 21:54 | -51.59493 | -72.68663 | 13046 ft | 356 kts | 177° |
| 2026-04-20 21:54 | -51.61921 | -72.67916 | 12647 ft | 355 kts | 177° |
| 2026-04-20 21:55 | -51.64337 | -72.67172 | 12243 ft | 353 kts | 177° |
| 2026-04-20 21:55 | -51.66743 | -72.66429 | 11850 ft | 351 kts | 177° |
| 2026-04-20 21:55 | -51.69141 | -72.65689 | 11442 ft | 350 kts | 177° |
| 2026-04-20 21:55 | -51.71529 | -72.64954 | 11037 ft | 349 kts | 177° |
| 2026-04-20 21:56 | -51.73907 | -72.64224 | 10633 ft | 348 kts | 177° |
| 2026-04-20 21:56 | -51.76264 | -72.63494 | 10418 ft | 341 kts | 177° |
| 2026-04-20 21:56 | -51.78569 | -72.62775 | 10119 ft | 332 kts | 178° |
| 2026-04-20 21:56 | -51.80793 | -72.62071 | 10011 ft | 309 kts | 178° |
| 2026-04-20 21:57 | -51.82850 | -72.61413 | 9705 ft | 298 kts | 178° |
| 2026-04-20 21:57 | -51.84849 | -72.60792 | 9249 ft | 293 kts | 179° |
| 2026-04-20 21:57 | -51.86834 | -72.60182 | 8834 ft | 287 kts | 179° |
| 2026-04-20 21:57 | -51.88816 | -72.59515 | 8433 ft | 285 kts | 171° |
| 2026-04-20 21:58 | -51.90618 | -72.58185 | 8034 ft | 290 kts | 152° |
| 2026-04-20 21:58 | -51.92139 | -72.56030 | 7635 ft | 291 kts | 130° |
| 2026-04-20 21:58 | -51.93183 | -72.53306 | 7237 ft | 285 kts | 109° |
| 2026-04-20 21:58 | -51.93709 | -72.50242 | 6846 ft | 273 kts | 88° |
| 2026-04-20 21:59 | -51.93707 | -72.47246 | 6482 ft | 259 kts | 70° |
| 2026-04-20 21:59 | -51.93273 | -72.44525 | 6123 ft | 241 kts | 53° |
| 2026-04-20 21:59 | -51.92531 | -72.42262 | 5804 ft | 222 kts | 39° |
| 2026-04-20 21:59 | -51.91557 | -72.40423 | 5507 ft | 205 kts | 26° |
| 2026-04-20 22:00 | -51.90472 | -72.39082 | 5260 ft | 192 kts | 16° |
| 2026-04-20 22:00 | -51.89331 | -72.38152 | 4987 ft | 176 kts | 6° |
| 2026-04-20 22:00 | -51.88205 | -72.37609 | 4747 ft | 162 kts | 358° |
| 2026-04-20 22:00 | -51.87128 | -72.37374 | 4527 ft | 152 kts | 353° |
| 2026-04-20 22:01 | -51.86092 | -72.37200 | 4317 ft | 147 kts | 353° |
| 2026-04-20 22:01 | -51.85092 | -72.37029 | 4115 ft | 143 kts | 353° |
| 2026-04-20 22:01 | -51.84102 | -72.36865 | 3921 ft | 143 kts | 353° |
| 2026-04-20 22:01 | -51.83107 | -72.36702 | 3717 ft | 144 kts | 353° |
| 2026-04-20 22:02 | -51.82112 | -72.36536 | 3521 ft | 143 kts | 354° |
| 2026-04-20 22:02 | -51.81120 | -72.36370 | 3320 ft | 143 kts | 354° |
| 2026-04-20 22:02 | -51.80123 | -72.36205 | 3244 ft | 145 kts | 355° |
| 2026-04-20 22:02 | -51.79116 | -72.36037 | 3191 ft | 146 kts | 355° |
| 2026-04-20 22:03 | -51.78108 | -72.35867 | 3134 ft | 146 kts | 355° |
| 2026-04-20 22:03 | -51.77115 | -72.35694 | 3066 ft | 139 kts | 355° |
| 2026-04-20 22:03 | -51.76168 | -72.35545 | 2990 ft | 135 kts | 352° |
| 2026-04-20 22:03 | -51.75247 | -72.35631 | 2802 ft | 131 kts | 342° |
| 2026-04-20 22:04 | -51.74355 | -72.36001 | 2630 ft | 131 kts | 335° |
| 2026-04-20 22:04 | -51.73525 | -72.36632 | 2461 ft | 132 kts | 326° |
| 2026-04-20 22:04 | -51.72781 | -72.37509 | 2298 ft | 133 kts | 316° |
| 2026-04-20 22:04 | -51.72155 | -72.38602 | 2137 ft | 132 kts | 307° |
| 2026-04-20 22:05 | -51.71817 | -72.39416 | 2029 ft | 132 kts | 302° |
| 2026-04-20 22:05 | -51.71363 | -72.40709 | 1835 ft | 132 kts | 302° |
| 2026-04-20 22:05 | -51.70908 | -72.41991 | 1642 ft | 132 kts | 303° |
| 2026-04-20 22:05 | -51.70456 | -72.43266 | 1460 ft | 131 kts | 303° |
| 2026-04-20 22:06 | -51.70004 | -72.44545 | 1282 ft | 132 kts | 302° |
| 2026-04-20 22:06 | -51.69547 | -72.45844 | 1086 ft | 135 kts | 302° |
| 2026-04-20 22:06 | -51.69090 | -72.47138 | 902 ft | 133 kts | 303° |
| 2026-04-20 22:06 | -51.68637 | -72.48423 | 728 ft | 132 kts | 302° |
| 2026-04-20 22:07 | -51.68158 | -72.49765 | 523 ft | 134 kts | 303° |
| 2026-04-20 22:07 | -51.67691 | -72.51082 | 334 ft | 133 kts | 303° |
| 2026-04-20 22:07 | -51.67260 | -72.52330 | 237 ft | 121 kts | 303° |
| 2026-04-20 22:07 | -51.66954 | -72.53186 | 232 ft | 44 kts | 299° |
| 2026-04-20 22:08 | -51.66846 | -72.53490 | 232 ft | 17 kts | 291° |
| 2026-04-20 22:08 | -51.66785 | -72.53635 | 234 ft | 12 kts | 328° |
| 2026-04-20 22:08 | -51.66777 | -72.53679 | 234 ft | 1 kts | 173° |
| 2026-04-20 22:08 | -51.66787 | -72.53664 | 234 ft | 5 kts | 131° |
| 2026-04-20 22:09 | -51.66818 | -72.53573 | 237 ft | 14 kts | 118° |
| 2026-04-20 22:09 | -51.66877 | -72.53407 | 232 ft | 17 kts | 119° |
| 2026-04-20 22:09 | -51.66934 | -72.53242 | 231 ft | 16 kts | 121° |
| 2026-04-20 22:09 | -51.66989 | -72.53090 | 233 ft | 9 kts | 115° |
| 2026-04-20 22:10 | -51.66974 | -72.53017 | 231 ft | 7 kts | 37° |
| 2026-04-20 22:10 | -51.66935 | -72.52980 | 231 ft | 6 kts | 30° |
| 2026-04-20 22:10 | -51.66898 | -72.52945 | 233 ft | 6 kts | 34° |
| 2026-04-20 22:10 | -51.66881 | -72.52897 | 231 ft | 4 kts | 70° |
| 2026-04-20 22:11 | -51.66874 | -72.52856 | 231 ft | 3 kts | 76° |
| 2026-04-20 22:11 | -51.66872 | -72.52841 | 234 ft | 0 kts | 76° |